Time;durP1;ratioP1;P1;durP2;ratioP2;P2;SDS_P1;SDS_P2;PMS_P1;PMS_P2;Temp;Humidity;BMP_temperature;BMP_pressure;BME280_temperature;BME280_humidity;BME280_pressure;Samples;Min_cycle;Max_cycle;Signal;HPM_P1;HPM_P2
2022/08/17 00:01:59;;;;;;;5.17;2.70;;;;;;;20.41;80.37;99582.28;4986848;28;20466;-51
2022/08/17 00:04:32;;;;;;;2.80;2.60;;;;;;;20.55;79.60;99580.28;4963184;28;20461;-52
2022/08/17 00:06:59;;;;;;;1.70;1.60;;;;;;;20.29;80.89;99569.75;4985854;28;20469;-52
2022/08/17 00:09:25;;;;;;;6.17;2.40;;;;;;;20.11;81.12;99565.81;4974849;28;20459;-52
2022/08/17 00:11:52;;;;;;;2.47;2.20;;;;;;;20.09;81.15;99565.06;4967545;28;20458;-52
2022/08/17 00:14:38;;;;;;;2.37;2.27;;;;;;;19.99;81.72;99570.31;4976220;28;20956;-52
2022/08/17 00:17:05;;;;;;;2.47;2.37;;;;;;;20.01;81.78;99562.13;4976105;28;20454;-51
2022/08/17 00:19:32;;;;;;;4.80;2.27;;;;;;;20.02;81.60;99564.72;4963541;28;20457;-52
2022/08/17 00:22:01;;;;;;;3.07;2.60;;;;;;;20.20;81.42;99569.63;4975936;28;20455;-52
2022/08/17 00:24:48;;;;;;;1.80;1.70;;;;;;;20.39;80.75;99573.41;4965645;28;20463;-51
2022/08/17 00:27:14;;;;;;;2.33;2.13;;;;;;;20.45;81.10;99572.09;4972110;28;20450;-51
2022/08/17 00:29:41;;;;;;;2.03;1.93;;;;;;;20.50;81.16;99571.72;4976127;28;20450;-51
2022/08/17 00:32:07;;;;;;;3.83;3.07;;;;;;;20.34;80.50;99572.06;4962982;28;20754;-51
2022/08/17 00:34:54;;;;;;;2.83;2.63;;;;;;;20.18;81.63;99585.94;4976095;28;20450;-52
2022/08/17 00:37:20;;;;;;;2.83;2.63;;;;;;;20.21;81.38;99576.72;4969664;28;20847;-52
2022/08/17 00:39:47;;;;;;;2.30;2.20;;;;;;;20.10;81.87;99566.78;4969356;28;20458;-52
2022/08/17 00:42:16;;;;;;;3.30;2.90;;;;;;;20.13;82.13;99571.94;4975823;28;20838;-52
2022/08/17 00:44:44;;;;;;;2.50;2.40;;;;;;;19.92;83.37;99576.34;4975324;28;20458;-51
2022/08/17 00:47:10;;;;;;;2.00;1.90;;;;;;;19.90;82.99;99570.22;4963311;28;20839;-51
2022/08/17 00:49:36;;;;;;;3.37;3.17;;;;;;;19.88;83.27;99567.66;4975755;28;20478;-51
2022/08/17 00:52:14;;;;;;;3.10;2.40;;;;;;;19.93;82.97;99569.97;4968186;28;20959;-52
2022/08/17 00:54:43;;;;;;;2.40;2.30;;;;;;;19.96;83.16;99561.63;4971819;28;20455;-52
2022/08/17 00:57:17;;;;;;;3.20;2.90;;;;;;;19.87;83.04;99551.56;4975489;28;20461;-52
2022/08/17 00:59:47;;;;;;;2.70;2.50;;;;;;;19.88;83.15;99551.47;4967188;28;20947;-52
2022/08/17 01:02:38;;;;;;;4.13;3.03;;;;;;;19.79;83.45;99549.47;4981433;28;20446;-51
2022/08/17 01:05:22;;;;;;;3.20;1.33;;;;;;;19.63;84.45;99554.34;4965602;28;20478;-52
2022/08/17 01:07:52;;;;;;;2.60;2.40;;;;;;;19.51;84.88;99553.44;4987013;28;20968;-51
2022/08/17 01:10:22;;;;;;;2.57;2.37;;;;;;;19.58;84.86;99561.91;4964822;28;20457;-51
2022/08/17 01:13:10;;;;;;;2.27;2.17;;;;;;;19.56;84.82;99561.19;4963740;28;20458;-52
2022/08/17 01:15:40;;;;;;;2.47;2.37;;;;;;;19.38;85.11;99558.03;4975179;28;20461;-52
2022/08/17 01:18:13;;;;;;;2.07;1.97;;;;;;;19.49;85.34;99555.38;4965909;28;20499;-51
2022/08/17 01:20:52;;;;;;;3.00;1.70;;;;;;;19.52;84.64;99545.22;4971949;28;20454;-51
2022/08/17 01:23:22;;;;;;;2.90;2.80;;;;;;;19.45;84.63;99549.34;4975139;28;20456;-51
2022/08/17 01:25:51;;;;;;;6.13;2.57;;;;;;;19.38;85.29;99544.56;4962241;28;20461;-52
2022/08/17 01:28:18;;;;;;;6.60;2.17;;;;;;;19.52;85.14;99553.31;4974915;28;20481;-52
2022/08/17 01:31:07;;;;;;;2.20;2.00;;;;;;;19.64;84.81;99550.69;4966584;28;20447;-52
2022/08/17 01:33:34;;;;;;;2.37;2.23;;;;;;;19.58;84.99;99549.31;4970881;28;20454;-51
2022/08/17 01:36:02;;;;;;;3.03;2.70;;;;;;;19.56;85.05;99558.50;4974817;28;20948;-52
2022/08/17 01:38:30;;;;;;;5.50;2.80;;;;;;;19.44;85.26;99561.13;4960686;28;20496;-52
2022/08/17 01:41:05;;;;;;;10.63;2.57;;;;;;;19.50;85.25;99560.66;4974755;28;20465;-52
2022/08/17 01:43:38;;;;;;;3.50;3.30;;;;;;;19.42;85.93;99560.38;4970810;28;20456;-52
2022/08/17 01:46:05;;;;;;;4.83;3.30;;;;;;;19.35;85.77;99553.75;4966714;28;20932;-51
2022/08/17 01:48:34;;;;;;;1.83;1.70;;;;;;;19.29;86.62;99562.28;4974719;28;20476;-51
2022/08/17 01:51:01;;;;;;;2.47;2.37;;;;;;;19.24;86.64;99561.78;4962748;28;20470;-52
2022/08/17 01:53:33;;;;;;;2.30;2.10;;;;;;;19.19;86.70;99564.84;4973742;28;20454;-52
2022/08/17 01:56:12;;;;;;;2.47;2.37;;;;;;;19.26;86.43;99565.22;4974491;28;20932;-52
2022/08/17 01:58:41;;;;;;;2.27;2.07;;;;;;;19.05;86.63;99564.16;4963123;28;20585;-52
2022/08/17 02:01:09;;;;;;;2.60;2.40;;;;;;;19.15;86.82;99566.03;4987368;28;20441;-52
2022/08/17 02:03:37;;;;;;;3.20;2.40;;;;;;;19.21;86.36;99560.19;4965303;28;20462;-51
2022/08/17 02:06:05;;;;;;;2.43;2.23;;;;;;;19.13;87.28;99559.06;4972135;28;20446;-51
2022/08/17 02:08:52;;;;;;;2.27;2.17;;;;;;;19.28;86.14;99557.03;4981477;28;20462;-51
2022/08/17 02:11:28;;;;;;;9.83;2.93;;;;;;;19.19;86.52;99564.84;4962087;28;20524;-52
2022/08/17 02:13:56;;;;;;;2.70;2.50;;;;;;;19.18;86.87;99560.41;4961141;28;20486;-52
2022/08/17 02:16:29;;;;;;;2.40;2.30;;;;;;;19.17;86.80;99552.44;4974090;28;20513;-51
2022/08/17 02:19:12;;;;;;;4.13;2.33;;;;;;;19.08;87.25;99556.72;4970923;28;20499;-51
2022/08/17 02:21:40;;;;;;;3.40;2.33;;;;;;;19.19;86.90;99558.59;4965396;28;20943;-50
2022/08/17 02:24:10;;;;;;;14.47;2.47;;;;;;;19.27;86.86;99560.69;4974125;28;20805;-51
2022/08/17 02:26:36;;;;;;;2.20;1.93;;;;;;;19.36;86.17;99565.41;4962528;28;20463;-51
2022/08/17 02:29:03;;;;;;;2.80;2.70;;;;;;;19.29;86.35;99566.81;4972723;28;20466;-52
2022/08/17 02:31:30;;;;;;;2.67;2.47;;;;;;;19.19;87.17;99574.78;4974076;28;20455;-52
2022/08/17 02:33:56;;;;;;;2.27;2.17;;;;;;;18.92;88.98;99570.47;4960873;28;20458;-52
2022/08/17 02:36:32;;;;;;;2.73;2.57;;;;;;;18.92;88.80;99569.63;4973933;28;20442;-51
2022/08/17 02:39:02;;;;;;;3.23;2.17;;;;;;;19.14;87.55;99567.00;4960901;28;20501;-52
2022/08/17 02:41:31;;;;;;;2.43;1.77;;;;;;;19.04;88.14;99560.59;4960846;28;20451;-52
2022/08/17 02:43:58;;;;;;;3.23;3.03;;;;;;;19.03;88.34;99564.25;4973946;28;20456;-52
2022/08/17 02:46:25;;;;;;;3.20;2.97;;;;;;;19.08;88.73;99564.78;4972610;28;20461;-52
2022/08/17 02:48:51;;;;;;;3.57;3.30;;;;;;;19.04;88.79;99557.03;4961989;28;20470;-52
2022/08/17 02:51:18;;;;;;;2.47;2.30;;;;;;;18.97;89.46;99569.25;4973141;28;20462;-52
2022/08/17 02:53:45;;;;;;;4.77;2.53;;;;;;;19.08;89.14;99578.25;4966221;28;20458;-51
2022/08/17 02:56:12;;;;;;;5.73;3.27;;;;;;;19.04;89.88;99570.50;4968299;28;20450;-52
2022/08/17 02:58:38;;;;;;;3.23;3.03;;;;;;;18.86;90.54;99568.22;4973715;28;20494;-52
2022/08/17 03:01:07;;;;;;;4.20;3.80;;;;;;;18.85;90.73;99576.41;4986575;28;20450;-51
2022/08/17 03:03:34;;;;;;;3.03;2.83;;;;;;;18.92;89.92;99577.69;4964460;28;20460;-52
2022/08/17 03:06:01;;;;;;;3.27;2.93;;;;;;;18.80;90.37;99578.59;4970812;28;20832;-52
2022/08/17 03:08:28;;;;;;;2.53;2.43;;;;;;;18.85;90.09;99588.06;4983469;28;20988;-51
2022/08/17 03:10:55;;;;;;;3.17;2.97;;;;;;;19.02;89.10;99584.09;4960404;28;20486;-52
2022/08/17 03:13:22;;;;;;;4.07;2.87;;;;;;;19.05;89.24;99577.63;4973330;28;20457;-51
2022/08/17 03:15:49;;;;;;;3.50;3.20;;;;;;;18.80;90.33;99581.28;4970106;28;20572;-52
2022/08/17 03:18:18;;;;;;;2.40;2.30;;;;;;;18.90;90.02;99569.69;4964005;28;20508;-52
2022/08/17 03:20:56;;;;;;;3.53;3.27;;;;;;;18.84;91.00;99566.63;4973199;28;20822;-52
2022/08/17 03:23:24;;;;;;;4.33;2.40;;;;;;;18.90;90.89;99561.63;4960889;28;20479;-51
2022/08/17 03:25:52;;;;;;;4.30;2.47;;;;;;;19.01;90.18;99560.81;4973153;28;20513;-52
2022/08/17 03:28:20;;;;;;;2.97;2.00;;;;;;;19.13;89.64;99556.34;4973319;28;20557;-51
2022/08/17 03:30:47;;;;;;;7.60;3.47;;;;;;;19.18;89.67;99559.53;4973327;28;20493;-51
2022/08/17 03:33:15;;;;;;;4.80;2.50;;;;;;;19.21;89.74;99559.34;4973460;28;20480;-51
2022/08/17 03:35:41;;;;;;;5.40;3.93;;;;;;;19.31;89.13;99564.88;4972923;28;20861;-51
2022/08/17 03:38:10;;;;;;;11.63;2.87;;;;;;;19.29;89.14;99564.13;4960378;28;20498;-51
2022/08/17 03:40:37;;;;;;;5.13;4.03;;;;;;;19.31;89.01;99557.63;4973089;28;20455;-51
2022/08/17 03:43:27;;;;;;;2.40;2.30;;;;;;;19.23;89.12;99558.25;4969459;28;20489;-51
2022/08/17 03:57:13;;;;;;;2.87;2.67;;;;;;;19.21;89.47;99560.19;4973148;28;20450;-50
2022/08/17 03:59:40;;;;;;;2.80;2.60;;;;;;;19.33;88.50;99560.25;4959717;28;20991;-51
2022/08/17 04:02:17;;;;;;;2.57;2.37;;;;;;;19.31;88.70;99559.47;4963790;28;20463;-51
2022/08/17 04:04:44;;;;;;;29.67;3.53;;;;;;;19.38;88.43;99563.44;4975503;28;20452;-51
2022/08/17 04:07:10;;;;;;;4.40;3.97;;;;;;;19.42;88.78;99578.38;4987116;28;20457;-51
2022/08/17 04:09:37;;;;;;;2.37;2.27;;;;;;;19.34;88.82;99570.91;4972066;28;20553;-51
2022/08/17 04:12:04;;;;;;;2.60;2.40;;;;;;;19.38;88.78;99579.59;4968784;28;20971;-52
2022/08/17 04:14:37;;;;;;;2.27;2.03;;;;;;;19.46;88.79;99580.75;4976378;28;20549;-51
2022/08/17 04:17:22;;;;;;;2.93;2.50;;;;;;;19.42;88.85;99583.78;4963144;28;21296;-50
2022/08/17 04:19:48;;;;;;;3.53;3.30;;;;;;;19.09;89.90;99587.22;4976903;28;20526;-49
2022/08/17 04:22:15;;;;;;;3.83;3.07;;;;;;;19.03;90.38;99588.50;4973562;28;20501;-49
2022/08/17 04:25:18;;;;;;;2.53;2.43;;;;;;;19.14;91.05;99585.88;4968602;28;20461;-49
2022/08/17 04:27:45;;;;;;;5.20;3.37;;;;;;;19.04;91.32;99584.84;4964165;28;20470;-49
2022/08/17 04:30:11;;;;;;;2.67;2.53;;;;;;;19.23;90.84;99582.50;4963071;28;20576;-49
2022/08/17 04:33:04;;;;;;;22.53;3.33;;;;;;;19.53;88.67;99587.38;4974832;28;20838;-49
2022/08/17 04:35:41;;;;;;;2.70;2.17;;;;;;;19.29;89.61;99591.94;4975996;28;20553;-49
2022/08/17 04:38:11;;;;;;;2.53;2.33;;;;;;;19.31;89.25;99594.50;4963161;28;20847;-49
2022/08/17 04:43:25;;;;;;;2.40;2.30;;;;;;;19.64;87.71;99620.78;4962939;28;20465;-49
2022/08/17 04:45:59;;;;;;;2.50;2.30;;;;;;;19.70;87.26;99631.09;4975700;28;20461;-49
2022/08/17 04:48:31;;;;;;;9.93;3.23;;;;;;;19.75;87.09;99618.13;4971662;28;21055;-49
2022/08/17 04:51:21;;;;;;;2.90;2.70;;;;;;;19.63;87.55;99624.47;4968426;28;20462;-50
2022/08/17 04:53:51;;;;;;;4.93;2.60;;;;;;;19.68;87.58;99623.13;4964352;28;20446;-49
2022/08/17 04:56:20;;;;;;;3.43;2.83;;;;;;;19.75;87.24;99618.13;4962763;28;20819;-48
2022/08/17 04:58:49;;;;;;;3.07;2.60;;;;;;;19.63;87.83;99640.63;4975414;28;20490;-49
2022/08/17 05:01:18;;;;;;;2.93;1.90;;;;;;;19.77;87.40;99635.91;4982565;28;20460;-47
2022/08/17 05:03:51;;;;;;;4.67;4.33;;;;;;;19.63;88.39;99633.41;4973134;28;20469;-48
2022/08/17 05:06:18;;;;;;;3.50;3.23;;;;;;;19.55;89.60;99638.53;4977533;28;20464;-49
2022/08/17 05:08:44;;;;;;;2.70;2.40;;;;;;;19.12;91.49;99633.63;4983173;28;20473;-48
2022/08/17 05:11:10;;;;;;;2.50;2.30;;;;;;;19.44;90.18;99633.03;4962339;28;20450;-49
2022/08/17 05:13:37;;;;;;;2.57;2.47;;;;;;;19.28;90.50;99611.78;4974868;28;20454;-49
2022/08/17 05:16:04;;;;;;;2.70;2.50;;;;;;;19.31;90.42;99618.78;4970211;28;20451;-48
2022/08/17 05:18:31;;;;;;;8.63;3.70;;;;;;;19.55;89.74;99599.91;4967661;28;20485;-49
2022/08/17 05:20:58;;;;;;;3.43;2.70;;;;;;;19.81;89.04;99590.66;4976481;28;20457;-48
2022/08/17 05:23:26;;;;;;;2.27;2.17;;;;;;;19.60;89.57;99590.50;4963789;28;20466;-49
2022/08/17 05:26:08;;;;;;;8.80;3.43;;;;;;;19.82;89.65;99589.69;4963802;28;20454;-49
2022/08/17 05:28:37;;;;;;;2.10;2.00;;;;;;;20.02;88.82;99593.53;4974819;28;20463;-49
2022/08/17 05:31:05;;;;;;;2.50;2.40;;;;;;;20.05;88.68;99583.34;4966301;28;21052;-49
2022/08/17 05:33:36;;;;;;;3.77;3.47;;;;;;;20.11;89.19;99587.41;4970779;28;20456;-49
2022/08/17 05:36:10;;;;;;;3.50;2.33;;;;;;;20.39;87.81;99581.50;4974907;28;20445;-49
2022/08/17 05:38:57;;;;;;;2.83;2.63;;;;;;;20.31;88.44;99573.19;4962432;28;20486;-48
2022/08/17 05:41:24;;;;;;;4.83;2.33;;;;;;;20.45;88.00;99571.25;4963157;28;20451;-48
2022/08/17 05:43:50;;;;;;;2.57;2.47;;;;;;;20.64;87.31;99568.75;4973377;28;20462;-48
2022/08/17 05:46:25;;;;;;;3.37;3.07;;;;;;;20.82;86.71;99569.94;4961499;28;20533;-50
2022/08/17 05:48:56;;;;;;;2.70;2.50;;;;;;;20.93;86.52;99569.06;4974538;28;20474;-49
2022/08/17 05:51:49;;;;;;;2.50;2.30;;;;;;;21.22;85.44;99564.75;4971915;28;20940;-49
2022/08/17 05:54:30;;;;;;;3.03;2.93;;;;;;;21.50;84.46;99571.44;4967609;28;20513;-49
2022/08/17 05:57:05;;;;;;;3.20;3.00;;;;;;;21.76;82.86;99561.06;4963165;28;20962;-49
2022/08/17 05:59:41;;;;;;;2.20;2.10;;;;;;;21.88;82.75;99575.38;4963843;28;20496;-50
2022/08/17 06:02:19;;;;;;;3.60;3.30;;;;;;;22.02;82.30;99574.19;4983597;28;20447;-49
2022/08/17 06:04:52;;;;;;;2.43;2.23;;;;;;;21.99;81.90;99574.47;4961180;28;20825;-49
2022/08/17 06:07:24;;;;;;;3.33;2.97;;;;;;;21.77;82.80;99583.56;4986247;28;20468;-49
2022/08/17 06:10:18;;;;;;;5.03;3.77;;;;;;;21.67;82.96;99596.19;4966644;28;21004;-50
2022/08/17 06:12:48;;;;;;;19.73;2.33;;;;;;;21.71;83.42;99603.06;4971884;28;20454;-50
2022/08/17 06:15:14;;;;;;;2.00;1.87;;;;;;;22.02;81.91;99602.13;4973800;28;20450;-49
2022/08/17 06:17:42;;;;;;;4.00;3.70;;;;;;;22.22;80.65;99602.28;4961006;28;20478;-49
2022/08/17 06:20:12;;;;;;;2.00;1.90;;;;;;;22.04;80.56;99594.72;4974000;28;20980;-51
2022/08/17 06:22:52;;;;;;;2.77;2.57;;;;;;;21.87;80.71;99581.78;4966605;28;20990;-49
2022/08/17 06:25:33;;;;;;;7.00;3.10;;;;;;;21.83;81.18;99592.03;4968646;28;20939;-50
2022/08/17 06:28:13;;;;;;;2.10;2.00;;;;;;;21.73;81.84;99593.81;4974132;28;20466;-49
2022/08/17 06:30:55;;;;;;;16.37;2.50;;;;;;;21.89;81.58;99583.38;4960915;28;20446;-49
2022/08/17 06:33:34;;;;;;;3.80;3.50;;;;;;;21.93;81.29;99575.88;4974125;28;20453;-49
2022/08/17 06:36:32;;;;;;;3.47;3.20;;;;;;;21.99;80.75;99569.06;4974061;28;20458;-49
2022/08/17 06:39:23;;;;;;;3.07;2.90;;;;;;;21.80;81.86;99562.53;4960277;28;20501;-49
2022/08/17 06:42:13;;;;;;;3.63;2.27;;;;;;;21.71;82.02;99559.78;4960872;28;20446;-49
2022/08/17 06:45:04;;;;;;;4.93;3.07;;;;;;;21.65;82.80;99561.13;4973864;28;20469;-48
2022/08/17 06:47:34;;;;;;;5.70;2.53;;;;;;;21.90;82.50;99570.69;4963481;28;20475;-50
2022/08/17 06:50:13;;;;;;;4.00;3.60;;;;;;;21.98;82.14;99583.56;4971887;28;20452;-49
2022/08/17 06:53:04;;;;;;;9.87;4.10;;;;;;;22.00;82.06;99589.72;4973989;28;20446;-50
2022/08/17 06:55:55;;;;;;;9.23;4.27;;;;;;;22.16;80.96;99582.84;4963726;28;20453;-50
2022/08/17 06:58:24;;;;;;;9.67;4.23;;;;;;;22.23;80.12;99572.34;4969341;28;20467;-50
2022/08/17 07:00:58;;;;;;;3.63;2.80;;;;;;;22.23;80.15;99585.88;4980958;28;20496;-49
2022/08/17 07:03:36;;;;;;;4.03;2.67;;;;;;;22.28;79.98;99580.91;4965993;28;20514;-50
2022/08/17 07:06:11;;;;;;;4.10;3.70;;;;;;;22.25;79.96;99604.69;4972004;28;20489;-50
2022/08/17 07:08:50;;;;;;;2.33;2.13;;;;;;;22.26;79.89;99614.53;4982237;28;20484;-49
2022/08/17 07:11:26;;;;;;;8.67;2.77;;;;;;;22.25;80.06;99615.53;4960368;28;20959;-50
2022/08/17 07:14:00;;;;;;;3.73;2.97;;;;;;;22.31;79.83;99623.09;4973478;28;20456;-49
2022/08/17 07:16:39;;;;;;;14.13;3.40;;;;;;;22.55;78.98;99615.53;4965368;28;20952;-49
2022/08/17 07:19:07;;;;;;;3.20;3.00;;;;;;;22.21;79.59;99617.66;4972027;28;20493;-49
2022/08/17 07:22:01;;;;;;;2.90;2.70;;;;;;;22.17;81.35;99635.16;4974128;28;20476;-49
2022/08/17 07:24:46;;;;;;;3.93;3.60;;;;;;;22.10;81.51;99631.28;4961795;28;20455;-49
2022/08/17 07:27:31;;;;;;;2.90;2.70;;;;;;;22.30;80.33;99610.56;4960386;28;20447;-49
2022/08/17 07:30:09;;;;;;;12.03;2.97;;;;;;;22.21;81.62;99606.81;4973385;28;20450;-50
2022/08/17 07:32:47;;;;;;;3.03;2.83;;;;;;;22.38;80.43;99594.50;4962401;28;20489;-50
2022/08/17 07:35:19;;;;;;;2.93;2.73;;;;;;;22.34;80.27;99591.22;4964532;28;20460;-49
2022/08/17 07:37:51;;;;;;;2.73;2.53;;;;;;;22.36;79.82;99588.38;4967533;28;20481;-49
2022/08/17 07:40:28;;;;;;;3.67;3.37;;;;;;;22.28;80.39;99596.31;4973885;28;20520;-51
2022/08/17 07:43:10;;;;;;;5.23;2.77;;;;;;;22.63;80.27;99613.00;4977460;28;21006;-50
2022/08/17 07:48:48;;;;;;;10.43;3.00;;;;;;;22.67;82.39;99638.81;4975947;28;20983;-49
2022/08/17 07:51:35;;;;;;;3.27;2.97;;;;;;;23.18;78.97;99635.16;4976027;28;20452;-49
2022/08/17 07:54:26;;;;;;;5.13;2.50;;;;;;;22.91;80.39;99662.06;4967591;28;20879;-50
2022/08/17 07:57:11;;;;;;;3.90;3.60;;;;;;;22.77;80.60;99663.25;4964448;28;20816;-49
2022/08/17 08:00:00;;;;;;;3.13;3.00;;;;;;;22.87;79.25;99683.13;4968083;28;20503;-49
2022/08/17 08:02:37;;;;;;;7.53;2.10;;;;;;;22.92;77.68;99680.03;4982844;28;20936;-51
2022/08/17 08:05:17;;;;;;;5.80;2.90;;;;;;;22.90;78.28;99684.72;4965207;28;20998;-49
2022/08/17 08:08:22;;;;;;;2.70;2.50;;;;;;;23.15;76.98;99678.78;4988400;28;20489;-49
2022/08/17 08:11:02;;;;;;;2.77;2.53;;;;;;;23.16;76.28;99666.09;4963105;28;20451;-49
2022/08/17 08:13:31;;;;;;;13.00;2.97;;;;;;;23.04;75.85;99671.66;4969605;28;20449;-51
2022/08/17 08:16:15;;;;;;;2.90;2.70;;;;;;;22.99;76.26;99670.34;4969897;28;21014;-50
2022/08/17 08:18:46;;;;;;;3.30;3.10;;;;;;;23.17;75.81;99665.97;4962967;28;20478;-49
2022/08/17 08:21:47;;;;;;;3.30;2.70;;;;;;;23.16;74.85;99669.66;4965059;28;20912;-49
2022/08/17 08:24:35;;;;;;;2.97;2.77;;;;;;;22.86;76.23;99659.72;4960410;28;20440;-50
2022/08/17 08:27:12;;;;;;;2.77;2.67;;;;;;;23.06;76.72;99663.38;4967396;28;20447;-49
2022/08/17 08:30:13;;;;;;;3.43;3.23;;;;;;;23.13;77.07;99661.81;4967219;28;20452;-50
2022/08/17 08:32:44;;;;;;;3.33;3.10;;;;;;;23.15;77.05;99662.53;4963581;28;20447;-50
2022/08/17 08:35:25;;;;;;;3.30;3.10;;;;;;;23.17;76.47;99668.69;4971338;28;20457;-50
2022/08/17 08:38:18;;;;;;;3.20;2.50;;;;;;;23.07;76.25;99675.94;4965748;28;20474;-51
2022/08/17 08:41:00;;;;;;;3.73;3.53;;;;;;;23.23;76.40;99675.41;4964337;28;20516;-51
2022/08/17 08:43:35;;;;;;;3.37;3.07;;;;;;;23.39;75.05;99670.28;4964808;28;20450;-51
2022/08/17 08:46:19;;;;;;;2.50;2.40;;;;;;;23.65;74.08;99667.91;4974817;28;20475;-51
2022/08/17 08:49:09;;;;;;;10.63;4.00;;;;;;;23.20;75.21;99651.28;4960936;28;20480;-49
2022/08/17 08:51:54;;;;;;;3.47;3.27;;;;;;;23.39;74.93;99655.84;4962891;28;20500;-50
2022/08/17 08:54:35;;;;;;;8.30;3.00;;;;;;;23.42;74.68;99663.72;4975622;28;20482;-50
2022/08/17 08:57:11;;;;;;;3.80;3.50;;;;;;;23.53;73.99;99658.16;4964889;28;20481;-50
2022/08/17 09:00:17;;;;;;;8.77;4.00;;;;;;;23.61;73.92;99659.19;4968679;28;20516;-49
2022/08/17 09:03:13;;;;;;;2.57;2.47;;;;;;;23.90;72.41;99670.03;4977156;28;20469;-50
2022/08/17 09:06:07;;;;;;;10.53;2.00;;;;;;;24.20;71.77;99687.16;4966677;28;20554;-52
2022/08/17 09:09:08;;;;;;;3.10;2.90;;;;;;;24.60;70.78;99686.09;4981364;28;20474;-50
2022/08/17 09:11:53;;;;;;;9.13;2.57;;;;;;;24.35;70.54;99693.88;4964619;28;20448;-50
2022/08/17 09:14:33;;;;;;;3.03;2.93;;;;;;;24.77;70.30;99693.47;4975438;28;20447;-50
2022/08/17 09:17:37;;;;;;;2.60;2.50;;;;;;;24.64;69.22;99711.97;4962071;28;20961;-50
2022/08/17 09:20:17;;;;;;;13.30;3.50;;;;;;;24.66;68.89;99720.81;4975461;28;20497;-51
2022/08/17 09:23:13;;;;;;;5.03;3.37;;;;;;;24.79;68.51;99715.91;4964686;28;20481;-50
2022/08/17 09:25:49;;;;;;;3.00;2.80;;;;;;;24.83;68.28;99709.19;4962088;28;20480;-50
2022/08/17 09:28:27;;;;;;;2.67;2.57;;;;;;;24.79;68.80;99710.47;4975300;28;20477;-51
2022/08/17 09:31:01;;;;;;;3.30;3.00;;;;;;;24.89;67.47;99707.72;4975239;28;20456;-51
2022/08/17 09:33:33;;;;;;;4.00;3.70;;;;;;;24.73;69.36;99701.06;4961826;28;20458;-51
2022/08/17 09:36:17;;;;;;;2.80;2.70;;;;;;;24.62;71.88;99694.94;4974842;28;20447;-50
2022/08/17 09:39:02;;;;;;;2.67;2.47;;;;;;;24.46;71.94;99690.13;4961884;28;20472;-51
2022/08/17 09:41:39;;;;;;;4.33;2.87;;;;;;;24.43;72.44;99683.16;4974527;28;21044;-50
2022/08/17 09:44:26;;;;;;;3.33;3.00;;;;;;;24.39;71.90;99689.00;4963927;28;20447;-49
2022/08/17 09:46:59;;;;;;;2.67;2.40;;;;;;;24.65;72.47;99700.09;4975609;28;20465;-49
2022/08/17 09:49:48;;;;;;;3.70;3.50;;;;;;;24.98;70.75;99710.41;4974901;28;20454;-51
2022/08/17 09:52:23;;;;;;;3.83;3.33;;;;;;;24.69;73.51;99707.81;4964892;28;20969;-49
2022/08/17 09:54:53;;;;;;;9.37;2.13;;;;;;;24.33;73.05;99698.59;4961490;28;20456;-49
2022/08/17 09:57:42;;;;;;;3.33;3.07;;;;;;;24.34;72.98;99696.75;4974644;28;20451;-49
2022/08/17 10:00:18;;;;;;;7.10;4.03;;;;;;;24.35;72.70;99691.16;4969851;28;20485;-49
2022/08/17 10:02:59;;;;;;;6.67;3.83;;;;;;;24.43;72.47;99683.16;4976170;28;20450;-48
2022/08/17 10:06:06;;;;;;;3.40;3.13;;;;;;;24.66;71.44;99691.78;4965456;28;20943;-49
2022/08/17 10:08:56;;;;;;;26.03;3.03;;;;;;;24.93;70.24;99688.22;4983649;28;20532;-49
2022/08/17 10:14:42;;;;;;;5.13;2.97;;;;;;;25.24;68.07;99680.69;4961303;28;20457;-49
2022/08/17 10:17:32;;;;;;;2.90;2.70;;;;;;;25.40;67.04;99671.84;4974215;28;20482;-49
2022/08/17 10:20:05;;;;;;;3.60;3.30;;;;;;;25.26;67.82;99667.78;4964582;28;20506;-50
2022/08/17 10:28:25;;;;;;;3.50;3.20;;;;;;;25.28;67.20;99665.75;4966750;28;20846;-51
2022/08/17 10:31:01;;;;;;;3.03;2.83;;;;;;;25.19;67.17;99658.50;4961404;28;21021;-50
2022/08/17 10:34:08;;;;;;;3.10;2.90;;;;;;;25.14;67.22;99655.38;4960969;28;20454;-50
2022/08/17 10:36:54;;;;;;;7.40;2.97;;;;;;;25.51;66.78;99673.47;4973728;28;20450;-50
2022/08/17 10:39:44;;;;;;;1.80;1.70;;;;;;;25.56;66.48;99679.31;4963585;28;20475;-50
2022/08/17 10:42:45;;;;;;;2.50;1.77;;;;;;;25.68;65.84;99689.84;4961220;28;20447;-50
2022/08/17 10:45:35;;;;;;;3.03;2.70;;;;;;;26.05;65.27;99697.00;4965961;28;20922;-50
2022/08/17 10:48:04;;;;;;;1.90;1.80;;;;;;;26.47;63.40;99710.81;4967759;28;20471;-50
2022/08/17 10:50:48;;;;;;;2.03;1.90;;;;;;;26.80;61.45;99714.59;4973723;28;20461;-49
2022/08/17 10:53:48;;;;;;;4.40;2.70;;;;;;;27.10;59.76;99704.19;4960519;28;20939;-51
2022/08/17 10:56:16;;;;;;;1.30;1.20;;;;;;;27.25;58.10;99694.34;4973090;28;20465;-50
2022/08/17 10:58:52;;;;;;;1.43;1.33;;;;;;;27.39;57.00;99698.31;4965204;28;20881;-50
2022/08/17 11:01:31;;;;;;;1.70;1.60;;;;;;;27.59;57.21;99699.75;4984210;28;20482;-51
2022/08/17 11:04:06;;;;;;;1.60;1.50;;;;;;;27.52;56.80;99695.97;4961660;28;20454;-51
2022/08/17 11:06:51;;;;;;;2.00;1.90;;;;;;;27.84;56.13;99691.63;4979111;28;20464;-51
2022/08/17 11:09:51;;;;;;;3.80;2.70;;;;;;;27.95;55.48;99678.47;4974285;28;20483;-51
2022/08/17 11:12:47;;;;;;;1.57;1.47;;;;;;;27.95;55.27;99674.88;4973938;28;20616;-51
2022/08/17 11:15:49;;;;;;;2.70;2.50;;;;;;;28.38;54.58;99681.91;4979937;28;20817;-52
2022/08/17 11:18:46;;;;;;;1.90;1.80;;;;;;;28.45;54.79;99680.19;4969640;28;20480;-51
2022/08/17 11:21:37;;;;;;;9.10;2.10;;;;;;;28.67;54.06;99680.50;4967577;28;21030;-50
2022/08/17 11:24:39;;;;;;;1.97;1.87;;;;;;;28.50;54.16;99685.97;4966762;28;20450;-51
2022/08/17 11:27:27;;;;;;;1.77;1.67;;;;;;;28.21;55.64;99685.63;4978444;28;20465;-51
2022/08/17 11:29:59;;;;;;;1.53;1.43;;;;;;;28.09;55.85;99681.53;4967988;28;20428;-51
2022/08/17 11:32:48;;;;;;;4.13;1.90;;;;;;;28.17;54.53;99685.13;4966795;28;20515;-51
2022/08/17 11:35:20;;;;;;;2.23;1.57;;;;;;;28.30;55.12;99677.28;4980079;28;20461;-51
2022/08/17 11:38:11;;;;;;;3.57;1.53;;;;;;;28.42;55.08;99675.06;4969920;28;20486;-51
2022/08/17 11:41:08;;;;;;;1.83;1.73;;;;;;;28.75;54.16;99678.56;4967622;28;20576;-51
2022/08/17 11:44:10;;;;;;;3.57;3.20;;;;;;;28.88;53.79;99681.63;4966830;28;21031;-51
2022/08/17 11:53:03;;;;;;;3.50;2.20;;;;;;;28.36;54.90;99677.63;4979040;28;20951;-50
2022/08/17 11:55:30;;;;;;;1.93;1.80;;;;;;;28.36;54.68;99689.41;4970653;28;20426;-50
2022/08/17 11:58:36;;;;;;;2.20;2.10;;;;;;;28.24;55.57;99685.31;4976710;28;20940;-51
2022/08/17 12:01:32;;;;;;;1.57;1.47;;;;;;;28.09;56.05;99681.53;4992512;28;20575;-50
2022/08/17 12:04:34;;;;;;;1.97;1.87;;;;;;;28.10;56.42;99675.94;4966829;28;20454;-51
2022/08/17 12:07:28;;;;;;;14.50;2.70;;;;;;;27.98;56.67;99680.88;4947798;29;20471;-51
2022/08/17 12:09:56;;;;;;;1.70;1.57;;;;;;;28.29;55.47;99677.47;4968344;28;20940;-51
2022/08/17 12:12:32;;;;;;;1.73;1.63;;;;;;;28.48;55.57;99677.09;4966114;28;20458;-51
2022/08/17 12:15:00;;;;;;;3.10;1.77;;;;;;;28.41;55.68;99678.81;4979562;28;20452;-51
2022/08/17 12:17:51;;;;;;;1.70;1.60;;;;;;;28.46;55.40;99673.69;4973437;28;20483;-50
2022/08/17 12:20:31;;;;;;;1.20;1.10;;;;;;;28.86;54.80;99675.44;4973819;28;20450;-51
2022/08/17 12:23:13;;;;;;;2.70;1.60;;;;;;;28.77;54.24;99678.38;4976398;28;20446;-51
2022/08/17 12:25:39;;;;;;;2.70;2.50;;;;;;;29.29;54.14;99680.59;4963271;28;20822;-51
2022/08/17 12:28:22;;;;;;;2.10;2.00;;;;;;;29.62;51.72;99682.16;4976201;28;20478;-51
2022/08/17 12:30:50;;;;;;;3.00;2.10;;;;;;;29.73;52.21;99673.50;4964101;28;20529;-51
2022/08/17 12:33:22;;;;;;;2.40;2.20;;;;;;;29.94;51.37;99669.25;4963030;28;20550;-51
2022/08/17 12:36:02;;;;;;;2.37;2.17;;;;;;;29.02;52.62;99657.28;4976266;28;20508;-51
2022/08/17 12:38:33;;;;;;;4.23;2.40;;;;;;;29.28;52.46;99670.69;4963156;28;20470;-51
2022/08/17 12:41:25;;;;;;;2.67;2.57;;;;;;;29.54;52.57;99665.75;4975973;28;20461;-52
2022/08/17 12:44:26;;;;;;;1.90;1.80;;;;;;;29.43;52.87;99655.19;4967907;28;20482;-52
2022/08/17 12:47:13;;;;;;;2.00;1.67;;;;;;;29.58;52.11;99660.78;4975628;28;20449;-52
2022/08/17 12:49:52;;;;;;;1.97;1.87;;;;;;;29.08;52.87;99654.72;4972356;28;20473;-51
2022/08/17 12:52:18;;;;;;;7.43;2.03;;;;;;;29.36;53.17;99656.97;4967172;28;20442;-51
2022/08/17 12:54:56;;;;;;;1.73;1.63;;;;;;;29.60;52.77;99650.47;4975769;28;20454;-51